createdAt,value
2023-06-12T00:00:48.666Z,35.75
2023-06-12T00:01:48.683Z,35.77
2023-06-12T00:02:48.886Z,35.73
2023-06-12T00:03:49.137Z,35.77
2023-06-12T00:04:48.992Z,35.75
2023-06-12T00:05:48.790Z,35.78
2023-06-12T00:06:48.843Z,35.77
2023-06-12T00:07:48.850Z,35.81
2023-06-12T00:08:48.892Z,35.77
2023-06-12T00:09:48.920Z,35.81
2023-06-12T00:10:48.967Z,35.76
2023-06-12T00:11:48.994Z,35.77
2023-06-12T00:12:49.043Z,35.80
2023-06-12T00:13:49.183Z,35.80
2023-06-12T00:14:49.099Z,35.79
2023-06-12T00:15:49.143Z,35.77
2023-06-12T00:16:49.319Z,35.83
2023-06-12T00:17:49.330Z,35.81
2023-06-12T00:18:49.245Z,35.78
2023-06-12T00:19:49.281Z,35.80
2023-06-12T00:20:49.364Z,35.81
2023-06-12T00:21:49.392Z,35.83
2023-06-12T00:22:49.400Z,35.80
2023-06-12T00:23:49.463Z,35.80
2023-06-12T00:24:49.481Z,35.81
2023-06-12T00:25:49.509Z,35.80
2023-06-12T00:26:49.552Z,35.80
2023-06-12T00:27:49.612Z,35.82
2023-06-12T00:28:49.653Z,35.78
2023-06-12T00:29:49.680Z,35.82
2023-06-12T00:30:49.720Z,35.86
2023-06-12T00:31:49.858Z,35.85
2023-06-12T00:32:49.855Z,35.82
2023-06-12T00:33:49.830Z,35.79
2023-06-12T00:34:49.879Z,35.84
2023-06-12T00:35:49.901Z,35.79
2023-06-12T00:36:49.958Z,35.83
2023-06-12T00:37:49.994Z,35.81
2023-06-12T00:38:50.030Z,35.81
2023-06-12T00:39:50.070Z,35.82
2023-06-12T00:40:50.128Z,35.85
2023-06-12T00:41:50.153Z,35.79
2023-06-12T00:42:50.195Z,35.83
2023-06-12T00:43:50.232Z,35.78
2023-06-12T00:44:50.274Z,35.81
2023-06-12T00:45:50.420Z,35.77
2023-06-12T00:46:50.360Z,35.78
2023-06-12T00:47:50.437Z,35.81
2023-06-12T00:48:50.435Z,35.78
2023-06-12T00:49:50.471Z,35.77
2023-06-12T00:50:50.516Z,35.81
2023-06-12T00:51:50.565Z,35.82
2023-06-12T00:52:50.592Z,35.82
2023-06-12T00:53:50.627Z,35.78
2023-06-12T00:54:50.664Z,35.74
2023-06-12T00:55:50.701Z,35.82
2023-06-12T00:56:50.758Z,35.80
2023-06-12T00:57:50.791Z,35.78
2023-06-12T00:58:50.820Z,35.81
2023-06-12T00:59:50.850Z,35.81
2023-06-12T01:00:50.951Z,35.77
2023-06-12T01:01:50.949Z,35.76
2023-06-12T01:02:51.024Z,35.77
2023-06-12T01:03:50.996Z,35.74
2023-06-12T01:04:51.038Z,35.77
2023-06-12T01:05:51.072Z,35.77
2023-06-12T01:06:51.115Z,35.75
2023-06-12T01:07:51.153Z,35.73
2023-06-12T01:08:51.198Z,35.74
2023-06-12T01:09:51.233Z,35.70
2023-06-12T01:10:51.276Z,35.78
2023-06-12T01:11:51.322Z,35.72
2023-06-12T01:12:51.371Z,35.74
2023-06-12T01:13:51.428Z,35.75
2023-06-12T01:14:51.460Z,35.71
2023-06-12T01:15:51.489Z,35.73
2023-06-12T01:16:51.574Z,35.74
2023-06-12T01:17:51.601Z,35.71
2023-06-12T01:18:51.617Z,35.70
2023-06-12T01:19:51.670Z,35.73
2023-06-12T01:20:51.704Z,35.71
2023-06-12T01:21:51.754Z,35.73
2023-06-12T01:22:51.794Z,35.74
2023-06-12T01:23:51.967Z,35.69
2023-06-12T01:24:51.876Z,35.70
2023-06-12T01:25:51.912Z,35.70
2023-06-12T01:26:51.952Z,35.70
2023-06-12T01:27:51.994Z,35.68
2023-06-12T01:28:52.038Z,35.70
2023-06-12T01:29:52.079Z,35.70
2023-06-12T01:30:52.116Z,35.72
2023-06-12T01:31:52.288Z,35.69
2023-06-12T01:32:52.272Z,35.68
2023-06-12T01:33:52.269Z,35.68
2023-06-12T01:34:52.516Z,35.65
2023-06-12T01:35:52.316Z,35.67
2023-06-12T01:36:52.374Z,35.65
2023-06-12T01:37:52.401Z,35.65
2023-06-12T01:38:52.432Z,35.71
2023-06-12T01:39:52.480Z,35.65
2023-06-12T01:40:52.514Z,35.65
2023-06-12T01:41:52.558Z,35.65
2023-06-12T01:42:52.625Z,35.66
2023-06-12T01:43:52.631Z,35.70
2023-06-12T01:44:52.673Z,35.67
2023-06-12T01:45:52.719Z,35.66
2023-06-12T01:46:52.780Z,35.66
2023-06-12T01:47:52.911Z,35.68
2023-06-12T01:48:52.861Z,35.65
2023-06-12T01:49:52.918Z,35.65
2023-06-12T01:50:52.935Z,35.65
2023-06-12T01:51:52.980Z,35.63
2023-06-12T01:52:53.021Z,35.66
2023-06-12T01:53:53.058Z,35.63
2023-06-12T01:54:53.106Z,35.65
2023-06-12T01:55:53.160Z,35.60
2023-06-12T01:56:53.207Z,35.64
2023-06-12T01:57:53.288Z,35.64
2023-06-12T01:58:53.287Z,35.60
2023-06-12T01:59:53.329Z,35.61
2023-06-12T02:00:53.370Z,35.63
2023-06-12T02:01:53.473Z,35.63
2023-06-12T02:02:53.465Z,35.65
2023-06-12T02:03:53.562Z,35.58
2023-06-12T02:04:53.548Z,35.63
2023-06-12T02:05:53.612Z,35.62
2023-06-12T02:06:53.626Z,35.62
2023-06-12T02:07:53.674Z,35.60
2023-06-12T02:08:53.699Z,35.63
2023-06-12T02:09:53.739Z,35.62
2023-06-12T02:10:53.781Z,35.63
2023-06-12T02:11:53.823Z,35.60
2023-06-12T02:12:53.863Z,35.63
2023-06-12T02:13:53.904Z,35.64
2023-06-12T02:14:53.947Z,35.65
2023-06-12T02:15:54.031Z,35.61
2023-06-12T02:16:54.028Z,35.60
2023-06-12T02:17:54.138Z,35.60
2023-06-12T02:18:54.133Z,35.58
2023-06-12T02:19:54.163Z,35.59
2023-06-12T02:20:54.227Z,35.60
2023-06-12T02:21:54.285Z,35.57
2023-06-12T02:22:54.319Z,35.63
2023-06-12T02:23:54.432Z,35.62
2023-06-12T02:24:54.390Z,35.58
2023-06-12T02:25:54.441Z,35.63
2023-06-12T02:26:54.492Z,35.55
2023-06-12T02:27:54.540Z,35.55
2023-06-12T02:28:54.580Z,35.58
2023-06-12T02:29:54.622Z,35.57
2023-06-12T02:30:54.679Z,35.63
2023-06-12T02:31:54.770Z,35.56
2023-06-12T02:32:54.799Z,35.55
2023-06-12T02:33:54.802Z,35.57
2023-06-12T02:34:54.850Z,35.56
2023-06-12T02:35:54.893Z,35.58
2023-06-12T02:36:54.934Z,35.62
2023-06-12T02:37:55.024Z,35.59
2023-06-12T02:38:55.029Z,35.59
2023-06-12T02:39:55.078Z,35.59
2023-06-12T02:40:55.127Z,35.59
2023-06-12T02:41:55.178Z,35.56
2023-06-12T02:42:55.244Z,35.58
2023-06-12T02:43:55.274Z,35.52
2023-06-12T02:44:55.327Z,35.52
2023-06-12T02:45:55.392Z,35.58
2023-06-12T02:46:55.453Z,35.55
2023-06-12T02:47:55.500Z,35.54
2023-06-12T02:48:55.537Z,35.55
2023-06-12T02:49:55.610Z,35.56
2023-06-12T02:50:55.634Z,35.58
2023-06-12T02:51:55.690Z,35.56
2023-06-12T02:52:55.731Z,35.55
2023-06-12T02:53:55.860Z,35.62
2023-06-12T02:54:55.830Z,35.54
2023-06-12T02:55:55.878Z,35.58
2023-06-12T02:56:55.939Z,35.58
2023-06-12T02:57:55.987Z,35.56
2023-06-12T02:58:56.032Z,35.51
2023-06-12T02:59:56.078Z,35.56
2023-06-12T03:00:56.150Z,35.56
2023-06-12T03:01:56.180Z,35.60
2023-06-12T03:02:56.274Z,35.58
2023-06-12T03:03:56.385Z,35.58
2023-06-12T03:04:56.320Z,35.54
2023-06-12T03:05:56.368Z,35.57
2023-06-12T03:06:56.419Z,35.52
2023-06-12T03:07:56.476Z,35.54
2023-06-12T03:08:56.516Z,35.63
2023-06-12T03:09:56.591Z,35.55
2023-06-12T03:10:56.617Z,35.56
2023-06-12T03:11:56.666Z,35.55
2023-06-12T03:12:56.717Z,35.56
2023-06-12T03:13:56.768Z,35.52
2023-06-12T03:14:56.810Z,35.60
2023-06-12T03:15:56.876Z,35.58
2023-06-12T03:16:56.905Z,35.59
2023-06-12T03:17:56.993Z,35.55
2023-06-12T03:18:57.016Z,35.55
2023-06-12T03:19:57.051Z,35.55
2023-06-12T03:20:57.113Z,35.55
2023-06-12T03:21:57.145Z,35.54
2023-06-12T03:22:57.195Z,35.54
2023-06-12T03:23:57.268Z,35.56
2023-06-12T03:24:57.280Z,35.51
2023-06-12T03:25:57.351Z,35.54
2023-06-12T03:26:57.378Z,35.55
2023-06-12T03:27:57.454Z,35.52
2023-06-12T03:28:57.478Z,35.54
2023-06-12T03:29:57.529Z,35.60
2023-06-12T03:30:57.606Z,35.52
2023-06-12T03:31:57.624Z,35.52
2023-06-12T03:32:57.838Z,35.54
2023-06-12T03:33:57.721Z,35.51
2023-06-12T03:34:57.778Z,35.48
2023-06-12T03:35:57.823Z,35.56
2023-06-12T03:36:57.871Z,35.52
2023-06-12T03:37:57.921Z,35.52
2023-06-12T03:38:57.974Z,35.52
2023-06-12T03:39:58.023Z,35.52
2023-06-12T03:40:58.093Z,35.54
2023-06-12T03:41:58.146Z,35.49
2023-06-12T03:42:58.199Z,35.51
2023-06-12T03:43:58.234Z,35.53
2023-06-12T03:44:58.287Z,35.48
2023-06-12T03:45:58.333Z,35.48
2023-06-12T03:46:58.439Z,35.48
2023-06-12T03:47:58.487Z,35.47
2023-06-12T03:48:58.485Z,35.45
2023-06-12T03:49:58.523Z,35.52
2023-06-12T03:50:58.564Z,35.52
2023-06-12T03:51:58.608Z,35.48
2023-06-12T03:52:58.661Z,35.52
2023-06-12T03:53:58.725Z,35.53
2023-06-12T03:54:58.748Z,35.47
2023-06-12T03:55:58.797Z,35.48
2023-06-12T03:56:58.857Z,35.47
2023-06-12T03:57:58.917Z,35.48
2023-06-12T03:58:58.937Z,35.44
2023-06-12T03:59:58.985Z,35.48
2023-06-12T04:00:59.025Z,35.44
2023-06-12T04:01:59.102Z,35.47
2023-06-12T04:02:59.208Z,35.48
2023-06-12T04:03:59.220Z,35.47
2023-06-12T04:04:59.234Z,35.47
2023-06-12T04:05:59.287Z,35.46
2023-06-12T04:06:59.310Z,35.45
2023-06-12T04:07:59.367Z,35.45
2023-06-12T04:08:59.403Z,35.44
2023-06-12T04:09:59.453Z,35.45
2023-06-12T04:10:59.504Z,35.43
2023-06-12T04:11:59.561Z,35.45
2023-06-12T04:12:59.610Z,35.43
2023-06-12T04:13:59.688Z,35.45
2023-06-12T04:14:59.711Z,35.41
2023-06-12T04:15:59.787Z,35.44
2023-06-12T04:16:59.821Z,35.44
2023-06-12T04:17:59.917Z,35.43
2023-06-12T04:18:59.908Z,35.48
2023-06-12T04:19:59.953Z,35.45
2023-06-12T04:21:00.010Z,35.43
2023-06-12T04:22:00.068Z,35.47
2023-06-12T04:23:00.139Z,35.47
2023-06-12T04:24:00.236Z,35.44
2023-06-12T04:25:00.219Z,35.41
2023-06-12T04:26:00.253Z,35.48
2023-06-12T04:27:00.303Z,35.44
2023-06-12T04:28:00.354Z,35.47
2023-06-12T04:29:00.417Z,35.41
2023-06-12T04:30:00.489Z,35.45
2023-06-12T04:31:00.520Z,35.47
2023-06-12T04:32:00.781Z,35.45
2023-06-12T04:33:00.638Z,35.45
2023-06-12T04:34:00.653Z,35.43
2023-06-12T04:35:00.690Z,35.48
2023-06-12T04:36:00.734Z,35.43
2023-06-12T04:37:00.797Z,35.48
2023-06-12T04:38:00.840Z,35.41
2023-06-12T04:39:00.901Z,35.47
2023-06-12T04:40:00.937Z,35.45
2023-06-12T04:41:01.030Z,35.45
2023-06-12T04:42:01.037Z,35.40
2023-06-12T04:43:01.087Z,35.43
2023-06-12T04:44:01.142Z,35.48
2023-06-12T04:45:01.203Z,35.41
2023-06-12T04:46:01.272Z,35.40
2023-06-12T04:47:01.295Z,35.44
2023-06-12T04:48:01.417Z,35.45
2023-06-12T04:49:01.440Z,35.39
2023-06-12T04:50:01.456Z,35.41
2023-06-12T04:51:01.510Z,35.41
2023-06-12T04:52:01.554Z,35.43
2023-06-12T04:53:01.586Z,35.43
2023-06-12T04:54:04.739Z,35.39
2023-06-12T04:55:01.650Z,35.44
2023-06-12T04:56:01.650Z,35.44
2023-06-12T04:57:01.664Z,35.43
2023-06-12T04:58:01.683Z,35.40
2023-06-12T04:59:01.689Z,35.45
2023-06-12T05:00:01.695Z,35.39
2023-06-12T05:01:02.281Z,35.41
2023-06-12T05:02:01.841Z,35.44
2023-06-12T05:03:01.870Z,35.43
2023-06-12T05:04:01.950Z,35.36
2023-06-12T05:05:01.933Z,35.37
2023-06-12T05:06:01.979Z,35.39
2023-06-12T05:07:02.025Z,35.38
2023-06-12T05:08:02.102Z,35.37
2023-06-12T05:09:02.117Z,35.38
2023-06-12T05:10:02.165Z,35.35
2023-06-12T05:11:02.219Z,35.32
2023-06-12T05:12:02.282Z,35.31
2023-06-12T05:13:02.326Z,35.26
2023-06-12T05:14:02.371Z,35.23
2023-06-12T05:15:02.426Z,34.99
2023-06-12T05:16:02.542Z,34.94
2023-06-12T05:17:02.719Z,34.87
2023-06-12T05:18:02.651Z,34.74
2023-06-12T05:19:02.634Z,34.70
2023-06-12T05:20:02.760Z,34.60
2023-06-12T05:21:02.734Z,34.44
2023-06-12T05:22:03.255Z,34.42
2023-06-12T05:23:03.236Z,34.35
2023-06-12T05:24:02.987Z,34.33
2023-06-12T05:25:06.183Z,34.28
2023-06-12T05:26:02.998Z,34.24
2023-06-12T05:27:03.010Z,34.21
2023-06-12T05:28:03.250Z,34.21
2023-06-12T05:29:03.038Z,34.20
2023-06-12T05:30:03.057Z,34.18
2023-06-12T05:31:03.191Z,34.17
2023-06-12T05:32:03.087Z,34.18
2023-06-12T05:33:04.329Z,34.16
2023-06-12T05:34:03.144Z,34.13
2023-06-12T05:35:03.130Z,34.13
2023-06-12T05:36:03.161Z,34.11
2023-06-12T05:37:03.190Z,34.10
2023-06-12T05:38:03.186Z,34.10
2023-06-12T05:39:05.619Z,34.09
2023-06-12T05:40:03.268Z,34.09
2023-06-12T05:41:03.291Z,34.08
2023-06-12T05:42:03.335Z,34.11
2023-06-12T05:43:03.743Z,34.07
2023-06-12T05:44:03.331Z,34.02
2023-06-12T05:45:03.343Z,34.02
2023-06-12T05:46:03.370Z,34.03
2023-06-12T05:47:03.359Z,34.04
2023-06-12T05:48:03.792Z,34.08
2023-06-12T05:49:03.412Z,34.06
2023-06-12T05:50:07.028Z,34.07
2023-06-12T05:51:03.438Z,34.03
2023-06-12T05:52:03.456Z,34.13
2023-06-12T05:53:10.893Z,34.18
2023-06-12T05:54:03.701Z,34.19
2023-06-12T05:55:04.376Z,34.23
2023-06-12T05:56:05.288Z,34.22
2023-06-12T05:58:07.347Z,34.36
2023-06-12T05:59:03.591Z,34.42
2023-06-12T06:01:06.803Z,34.27
2023-06-12T06:02:11.042Z,34.25
2023-06-12T06:03:35.707Z,34.23
2023-06-12T06:04:07.211Z,34.20
2023-06-12T06:06:11.054Z,34.14
2023-06-12T06:08:19.301Z,34.07
2023-06-12T06:09:03.759Z,34.08
2023-06-12T06:11:11.194Z,34.05
2023-06-12T06:12:03.700Z,33.98
2023-06-12T06:14:19.480Z,33.93
2023-06-12T06:15:12.075Z,33.90
2023-06-12T06:16:19.686Z,33.89
2023-06-12T06:17:04.055Z,33.91
2023-06-12T06:18:04.046Z,33.90
2023-06-12T06:19:04.321Z,33.84
2023-06-12T06:20:03.978Z,33.80
2023-06-12T06:21:03.958Z,33.78
2023-06-12T06:22:03.856Z,33.78
2023-06-12T06:23:11.880Z,33.74
2023-06-12T06:24:07.276Z,33.74
2023-06-12T06:25:04.377Z,33.72
2023-06-12T06:26:04.178Z,33.68
2023-06-12T06:27:03.922Z,33.67
2023-06-12T06:28:04.376Z,33.65
2023-06-12T06:29:12.726Z,33.64
2023-06-12T06:30:03.987Z,33.67
2023-06-12T06:31:07.533Z,33.64
2023-06-12T06:32:04.370Z,33.58
2023-06-12T06:33:04.345Z,33.57
2023-06-12T06:34:03.965Z,33.54
2023-06-12T06:35:11.971Z,33.53
2023-06-12T06:36:04.298Z,33.42
2023-06-12T06:37:04.024Z,33.37
2023-06-12T06:38:04.288Z,33.43
2023-06-12T06:39:19.703Z,33.35
2023-06-12T06:40:04.294Z,33.35
2023-06-12T06:41:04.118Z,33.30
2023-06-12T06:42:04.137Z,33.27
2023-06-12T06:43:04.210Z,33.26
2023-06-12T06:44:04.349Z,33.26
2023-06-12T06:45:04.207Z,33.27
2023-06-12T06:46:06.549Z,33.28
2023-06-12T06:47:11.569Z,33.33
2023-06-12T06:48:04.549Z,33.29
2023-06-12T06:49:04.320Z,33.29
2023-06-12T06:50:04.399Z,33.21
2023-06-12T06:51:04.286Z,33.23
2023-06-12T06:52:04.315Z,33.24
2023-06-12T06:53:04.278Z,33.13
2023-06-12T06:54:07.449Z,33.29
2023-06-12T06:55:04.200Z,33.25
2023-06-12T06:56:11.741Z,33.24
2023-06-12T06:57:04.224Z,33.22
2023-06-12T06:58:04.250Z,33.17
2023-06-12T06:59:04.267Z,33.18
2023-06-12T07:00:04.250Z,33.12
2023-06-12T07:01:04.367Z,33.16
2023-06-12T07:02:04.265Z,33.13
2023-06-12T07:03:04.878Z,33.15
2023-06-12T07:04:04.365Z,33.08
2023-06-12T07:05:04.311Z,33.10
2023-06-12T07:06:04.314Z,33.03
2023-06-12T07:07:04.373Z,33.12
2023-06-12T07:08:04.776Z,33.08
2023-06-12T07:09:04.338Z,33.11
2023-06-12T07:10:04.371Z,33.13
2023-06-12T07:11:04.811Z,33.11
2023-06-12T07:12:04.379Z,33.07
2023-06-12T07:13:04.782Z,33.10
2023-06-12T07:14:04.433Z,33.11
2023-06-12T07:15:04.432Z,33.14
2023-06-12T07:16:04.491Z,33.11
2023-06-12T07:17:04.465Z,33.11
2023-06-12T07:18:04.913Z,33.17
2023-06-12T07:19:04.803Z,33.24
2023-06-12T07:20:04.512Z,33.17
2023-06-12T07:21:04.626Z,33.27
2023-06-12T07:22:04.557Z,33.24
2023-06-12T07:23:04.556Z,33.12
2023-06-12T07:24:05.519Z,33.17
2023-06-12T07:25:04.581Z,33.20
2023-06-12T07:26:18.638Z,33.21
2023-06-12T07:27:04.657Z,33.13
2023-06-12T07:28:04.789Z,33.18
2023-06-12T07:29:04.802Z,33.20
2023-06-12T07:30:04.791Z,33.10
2023-06-12T07:31:05.776Z,33.13
2023-06-12T07:32:04.789Z,33.10
2023-06-12T07:33:04.846Z,33.30
2023-06-12T07:34:07.702Z,33.60
2023-06-12T07:35:05.052Z,33.73
2023-06-12T07:36:05.784Z,33.79
2023-06-12T07:37:04.870Z,33.88
2023-06-12T07:38:12.852Z,33.93
2023-06-12T07:39:08.154Z,33.94
2023-06-12T07:40:12.232Z,33.94
2023-06-12T07:41:05.320Z,34.12
2023-06-12T07:42:04.925Z,34.05
2023-06-12T07:43:06.300Z,34.06
2023-06-12T07:44:04.919Z,34.10
2023-06-12T07:45:04.889Z,34.15
2023-06-12T07:46:05.315Z,34.46
2023-06-12T07:47:04.951Z,34.41
2023-06-12T07:48:05.408Z,34.40
2023-06-12T07:49:05.911Z,34.47
2023-06-12T07:50:04.936Z,34.72
2023-06-12T07:51:12.338Z,35.13
2023-06-12T07:52:04.981Z,35.09
2023-06-12T07:53:36.396Z,35.11
2023-06-12T07:56:12.326Z,35.33
2023-06-12T07:57:04.942Z,35.19
2023-06-12T07:59:04.964Z,35.30
2023-06-12T08:00:04.965Z,35.33
2023-06-12T08:01:04.948Z,35.21
2023-06-12T08:02:05.072Z,35.25
2023-06-12T08:03:20.732Z,35.20
2023-06-12T08:04:05.163Z,35.24
2023-06-12T08:05:04.976Z,35.06
2023-06-12T08:06:05.393Z,35.23
2023-06-12T08:07:05.078Z,35.55
2023-06-12T08:08:05.321Z,35.26
2023-06-12T08:09:04.973Z,34.99
2023-06-12T08:10:04.987Z,34.89
2023-06-12T08:11:05.311Z,34.73
2023-06-12T08:12:05.050Z,34.58
2023-06-12T08:13:05.755Z,34.57
2023-06-12T08:14:05.025Z,34.63
2023-06-12T08:15:05.015Z,34.44
2023-06-12T08:16:04.985Z,34.51
2023-06-12T08:17:05.330Z,34.48
2023-06-12T08:18:05.073Z,34.55
2023-06-12T08:19:05.008Z,34.66
2023-06-12T08:20:04.986Z,34.65
2023-06-12T08:21:04.989Z,34.76
2023-06-12T08:22:06.330Z,34.73
2023-06-12T08:23:05.322Z,34.85
2023-06-12T08:24:05.059Z,34.68
2023-06-12T08:25:05.125Z,34.52
2023-06-12T08:26:05.165Z,34.55
2023-06-12T08:27:05.234Z,34.40
2023-06-12T08:28:05.409Z,34.40
2023-06-12T08:29:05.385Z,34.39
2023-06-12T08:30:05.460Z,34.29
2023-06-12T08:31:05.738Z,34.30
2023-06-12T08:32:05.597Z,34.24
2023-06-12T08:33:05.736Z,34.17
2023-06-12T08:34:05.834Z,34.25
2023-06-12T08:35:05.817Z,34.14
2023-06-12T08:36:06.327Z,34.18
2023-06-12T08:37:05.959Z,34.21
2023-06-12T08:38:06.026Z,34.19
2023-06-12T08:39:06.100Z,34.21
2023-06-12T08:40:06.173Z,34.19
2023-06-12T08:41:06.376Z,34.15
2023-06-12T08:42:09.499Z,34.21
2023-06-12T08:43:09.511Z,34.14
2023-06-12T08:44:06.302Z,34.30
2023-06-12T08:45:20.913Z,34.29
2023-06-12T08:46:06.358Z,34.23
2023-06-12T08:47:07.313Z,34.19
2023-06-12T08:48:13.680Z,34.11
2023-06-12T08:49:09.499Z,34.14
2023-06-12T08:50:09.482Z,34.08
2023-06-12T08:51:06.381Z,34.08
2023-06-12T08:52:06.276Z,34.08
2023-06-12T08:53:06.286Z,34.22
2023-06-12T08:55:07.286Z,34.25
2023-06-12T08:56:06.366Z,34.22
2023-06-12T08:57:06.254Z,34.69
2023-06-12T08:58:06.306Z,34.62
2023-06-12T08:59:07.316Z,34.82
2023-06-12T09:00:06.285Z,34.89
2023-06-12T09:01:06.260Z,35.05
2023-06-12T09:02:14.484Z,35.31
2023-06-12T09:03:06.404Z,35.35
2023-06-12T09:04:06.370Z,35.34
2023-06-12T09:05:06.736Z,35.30
2023-06-12T09:06:06.282Z,35.24
2023-06-12T09:07:06.250Z,35.18
2023-06-12T09:08:06.343Z,35.16
2023-06-12T09:09:06.243Z,35.16
2023-06-12T09:10:14.368Z,35.01
2023-06-12T09:11:06.233Z,34.89
2023-06-12T09:12:06.206Z,34.77
2023-06-12T09:13:06.327Z,34.58
2023-06-12T09:14:06.195Z,34.37
2023-06-12T09:15:06.199Z,34.35
2023-06-12T09:16:06.346Z,34.44
2023-06-12T09:17:06.184Z,34.59
2023-06-12T09:18:06.239Z,34.59
2023-06-12T09:19:06.500Z,34.63
2023-06-12T09:20:06.154Z,34.63
2023-06-12T09:21:06.331Z,34.55
2023-06-12T09:22:06.153Z,34.52
2023-06-12T09:23:06.180Z,34.61
2023-06-12T09:24:06.381Z,34.48
2023-06-12T09:25:06.134Z,34.85
2023-06-12T09:27:06.103Z,35.53
2023-06-12T09:28:06.249Z,35.32
2023-06-12T09:29:06.342Z,35.03
2023-06-12T09:30:06.105Z,34.72
2023-06-12T09:31:37.982Z,34.53
2023-06-12T09:32:06.138Z,34.42
2023-06-12T09:33:06.390Z,34.41
2023-06-12T09:34:06.333Z,34.50
2023-06-12T09:35:06.161Z,34.46
2023-06-12T09:36:21.722Z,34.46
2023-06-12T09:37:06.337Z,34.47
2023-06-12T09:38:21.971Z,34.58
2023-06-12T09:39:21.608Z,34.52
2023-06-12T09:40:05.985Z,34.44
2023-06-12T09:42:06.005Z,34.46
2023-06-12T09:43:06.340Z,34.61
2023-06-12T09:44:05.946Z,34.67
2023-06-12T09:45:05.931Z,34.53
2023-06-12T09:46:13.342Z,34.66
2023-06-12T09:47:06.952Z,34.57
2023-06-12T09:48:05.969Z,34.61
2023-06-12T09:49:05.890Z,34.49
2023-06-12T09:50:05.894Z,34.42
2023-06-12T09:51:05.974Z,34.48
2023-06-12T09:52:05.868Z,34.53
2023-06-12T09:53:06.341Z,34.63
2023-06-12T09:54:05.842Z,34.55
2023-06-12T09:55:05.848Z,34.56
2023-06-12T09:56:05.829Z,34.47
2023-06-12T09:57:05.820Z,34.37
2023-06-12T09:58:05.878Z,34.25
2023-06-12T09:59:05.829Z,34.29
2023-06-12T10:00:05.843Z,34.35
2023-06-12T10:01:05.803Z,34.28
2023-06-12T10:02:05.830Z,34.32
2023-06-12T10:03:05.798Z,34.16
2023-06-12T10:04:05.780Z,34.18
2023-06-12T10:05:05.732Z,34.32
2023-06-12T10:06:05.753Z,34.44
2023-06-12T10:07:05.733Z,34.21
2023-06-12T10:08:05.850Z,34.35
2023-06-12T10:09:05.687Z,34.40
2023-06-12T10:10:05.676Z,34.71
2023-06-12T10:11:05.659Z,34.86
2023-06-12T10:12:05.645Z,35.67
2023-06-12T10:13:05.634Z,35.60
2023-06-12T10:14:05.852Z,37.19
2023-06-12T10:15:05.664Z,38.11
2023-06-12T10:16:08.987Z,36.40
2023-06-12T10:17:05.594Z,36.83
2023-06-12T10:18:06.698Z,37.84
2023-06-12T10:19:05.896Z,38.71
2023-06-12T10:20:05.565Z,38.04
2023-06-12T10:21:12.996Z,37.58
2023-06-12T10:22:08.841Z,37.19
2023-06-12T10:23:05.535Z,38.68
2023-06-12T10:24:13.317Z,37.63
2023-06-12T10:25:13.344Z,38.12
2023-06-12T10:26:05.861Z,36.89
2023-06-12T10:27:05.476Z,36.64
2023-06-12T10:28:05.484Z,36.18
2023-06-12T10:29:05.857Z,35.37
2023-06-12T10:30:08.712Z,34.22
2023-06-12T10:31:05.892Z,33.61
2023-06-12T10:32:06.031Z,34.32
2023-06-12T10:33:05.491Z,34.54
2023-06-12T10:34:05.456Z,34.54
2023-06-12T10:35:05.428Z,34.79
2023-06-12T10:36:05.407Z,34.84
2023-06-12T10:37:05.406Z,34.96
2023-06-12T10:38:12.864Z,35.03
2023-06-12T10:39:05.788Z,34.70
2023-06-12T10:40:05.917Z,34.99
2023-06-12T10:41:05.362Z,34.90
2023-06-12T10:42:05.347Z,34.95
2023-06-12T10:43:05.336Z,34.81
2023-06-12T10:44:05.314Z,34.92
2023-06-12T10:45:05.292Z,34.24
2023-06-12T10:46:05.349Z,34.89
2023-06-12T10:47:05.281Z,34.52
2023-06-12T10:48:05.568Z,34.86
2023-06-12T10:49:05.243Z,35.02
2023-06-12T10:50:05.255Z,35.05
2023-06-12T10:51:05.208Z,34.97
2023-06-12T10:52:05.188Z,34.91
2023-06-12T10:53:05.422Z,34.47
2023-06-12T10:54:05.404Z,34.63
2023-06-12T10:55:05.126Z,34.75
2023-06-12T10:56:05.137Z,34.65
2023-06-12T10:57:05.419Z,34.80
2023-06-12T10:58:05.073Z,35.04
2023-06-12T10:59:05.385Z,34.80
2023-06-12T11:00:05.045Z,34.69
2023-06-12T11:01:05.093Z,34.08
2023-06-12T11:02:05.247Z,34.47
2023-06-12T11:03:05.544Z,34.48
2023-06-12T11:04:05.131Z,34.44
2023-06-12T11:05:05.045Z,34.36
2023-06-12T11:06:05.051Z,34.24
2023-06-12T11:07:05.002Z,34.25
2023-06-12T11:08:05.405Z,34.26
2023-06-12T11:09:04.914Z,34.15
2023-06-12T11:10:04.885Z,34.05
2023-06-12T11:11:04.825Z,33.99
2023-06-12T11:12:04.834Z,34.18
2023-06-12T11:13:04.902Z,34.03
2023-06-12T11:14:04.881Z,33.89
2023-06-12T11:15:04.908Z,33.76
2023-06-12T11:16:04.939Z,33.44
2023-06-12T11:17:05.080Z,33.95
2023-06-12T11:18:05.065Z,33.83
2023-06-12T11:19:05.025Z,33.33
2023-06-12T11:20:05.423Z,33.38
2023-06-12T11:21:04.979Z,33.34
2023-06-12T11:22:05.420Z,33.23
2023-06-12T11:23:04.996Z,33.16
2023-06-12T11:24:05.038Z,32.80
2023-06-12T11:25:05.437Z,32.68
2023-06-12T11:26:05.045Z,32.72
2023-06-12T11:27:05.055Z,32.94
2023-06-12T11:28:05.441Z,33.11
2023-06-12T11:29:05.045Z,32.94
2023-06-12T11:30:23.128Z,32.96
2023-06-12T11:31:10.163Z,33.12
2023-06-12T11:32:05.051Z,32.89
2023-06-12T11:33:08.681Z,33.07
2023-06-12T11:34:08.233Z,33.09
2023-06-12T11:35:04.978Z,33.21
2023-06-12T11:36:04.996Z,33.35
2023-06-12T11:37:04.945Z,33.32
2023-06-12T11:40:03.907Z,33.32
2023-06-12T11:41:04.890Z,33.25
2023-06-12T11:42:04.887Z,34.72
2023-06-12T11:43:04.923Z,34.76
2023-06-12T11:44:04.843Z,34.61
2023-06-12T11:45:04.822Z,34.74
2023-06-12T11:46:05.079Z,34.24
2023-06-12T11:50:03.774Z,34.86
2023-06-12T11:51:04.891Z,34.78
2023-06-12T11:52:04.727Z,34.79
2023-06-12T11:53:04.704Z,34.65
2023-06-12T11:54:04.707Z,34.93
2023-06-12T11:57:04.580Z,35.64
2023-06-12T11:58:04.761Z,35.85
2023-06-12T11:59:04.638Z,35.81
2023-06-12T12:00:04.607Z,35.55
2023-06-12T12:01:04.902Z,36.26
2023-06-12T12:02:04.673Z,36.56
2023-06-12T12:03:04.949Z,36.18
2023-06-12T12:04:04.638Z,35.82
2023-06-12T12:05:04.589Z,35.80
2023-06-12T12:06:04.516Z,35.25
2023-06-12T12:07:04.506Z,35.54
2023-06-12T12:08:04.489Z,35.62
2023-06-12T12:09:04.473Z,35.33
2023-06-12T12:10:04.455Z,35.53
2023-06-12T12:11:04.953Z,35.44
2023-06-12T12:12:04.412Z,35.46
2023-06-12T12:13:04.408Z,35.87
2023-06-12T12:14:04.402Z,35.62
2023-06-12T12:15:04.385Z,35.68
2023-06-12T12:16:04.391Z,35.77
2023-06-12T12:17:04.339Z,35.48
2023-06-12T12:18:04.451Z,35.91
2023-06-12T12:19:04.333Z,35.41
2023-06-12T12:20:05.266Z,35.91
2023-06-12T12:21:04.259Z,35.78
2023-06-12T12:22:04.237Z,35.77
2023-06-12T12:23:04.218Z,34.94
2023-06-12T12:24:04.262Z,34.54
2023-06-12T12:25:04.177Z,34.52
2023-06-12T12:26:04.174Z,34.59
2023-06-12T12:27:04.143Z,34.61
2023-06-12T12:28:04.180Z,34.44
2023-06-12T12:29:04.126Z,34.39
2023-06-12T12:30:04.114Z,34.80
2023-06-12T12:31:04.075Z,35.28
2023-06-12T12:32:04.074Z,34.44
2023-06-12T12:33:04.063Z,34.24
2023-06-12T12:34:04.021Z,34.08
2023-06-12T12:35:04.025Z,34.21
2023-06-12T12:36:04.004Z,34.08
2023-06-12T12:37:03.928Z,33.76
2023-06-12T12:38:03.907Z,33.85
2023-06-12T12:39:03.889Z,33.85
2023-06-12T12:40:03.871Z,34.17
2023-06-12T12:41:03.900Z,33.87
2023-06-12T12:42:11.232Z,33.98
2023-06-12T12:43:03.849Z,33.91
2023-06-12T12:44:03.953Z,33.92
2023-06-12T12:45:03.815Z,33.95
2023-06-12T12:46:03.790Z,33.75
2023-06-12T12:47:03.753Z,33.94
2023-06-12T12:48:03.901Z,33.82
2023-06-12T12:49:03.714Z,34.07
2023-06-12T12:50:06.767Z,34.12
2023-06-12T12:52:02.667Z,34.33
2023-06-12T12:53:03.934Z,34.37
2023-06-12T12:54:03.621Z,34.01
2023-06-12T12:55:03.603Z,33.95
2023-06-12T12:56:03.572Z,34.52
2023-06-12T12:57:03.569Z,34.49
2023-06-12T12:58:17.567Z,34.43
2023-06-12T12:59:03.523Z,34.05
2023-06-12T13:00:03.499Z,34.15
2023-06-12T13:01:03.487Z,33.89
2023-06-12T13:02:03.492Z,34.03
2023-06-12T13:03:03.508Z,34.24
2023-06-12T13:04:04.130Z,34.44
2023-06-12T13:05:03.449Z,34.57
2023-06-12T13:06:03.395Z,34.68
2023-06-12T13:07:03.404Z,34.71
2023-06-12T13:08:03.379Z,34.63
2023-06-12T13:09:03.341Z,34.60
2023-06-12T13:10:03.348Z,34.73
2023-06-12T13:11:03.300Z,34.64
2023-06-12T13:12:03.277Z,34.69
2023-06-12T13:13:03.260Z,34.65